Time;durP1;ratioP1;P1;durP2;ratioP2;P2;SDS_P1;SDS_P2;PMS_P1;PMS_P2;Temp;Humidity;BMP_temperature;BMP_pressure;BME280_temperature;BME280_humidity;BME280_pressure;Samples;Min_cycle;Max_cycle;Signal;HPM_P1;HPM_P2
2022/01/14 00:00:44;;;;;;;73.43;24.88;;;;;;;;;;5038638;28;20111;-56
2022/01/14 00:03:11;;;;;;;53.50;23.10;;;;;;;;;;5038295;28;20526;-56
2022/01/14 00:05:36;;;;;;;71.55;27.88;;;;;;;;;;5039608;28;20084;-56
2022/01/14 00:08:02;;;;;;;62.42;25.73;;;;;;;;;;5040559;28;20117;-56
2022/01/14 00:10:30;;;;;;;76.75;26.20;;;;;;;;;;5037622;28;20650;-56
2022/01/14 00:13:05;;;;;;;65.18;24.58;;;;;;;;;;5042036;28;20132;-56
2022/01/14 00:15:34;;;;;;;66.38;25.20;;;;;;;;;;5048323;28;20108;-56
2022/01/14 00:18:00;;;;;;;70.78;26.55;;;;;;;;;;5038303;28;20598;-56
2022/01/14 00:20:27;;;;;;;72.32;26.02;;;;;;;;;;5042073;28;20039;-56
2022/01/14 00:22:52;;;;;;;70.05;25.63;;;;;;;;;;5037469;28;20040;-56
2022/01/14 00:33:28;;;;;;;60.72;23.23;;;;;;;;;;5042516;28;20124;-55
2022/01/14 00:35:53;;;;;;;58.35;23.70;;;;;;;;;;5037697;28;20141;-55
2022/01/14 00:38:19;;;;;;;63.92;21.77;;;;;;;;;;5040047;28;20041;-55
2022/01/14 00:40:45;;;;;;;56.90;22.02;;;;;;;;;;5037542;28;20029;-55
2022/01/14 00:43:11;;;;;;;68.10;22.65;;;;;;;;;;5038256;28;20061;-56
2022/01/14 00:45:39;;;;;;;55.58;21.17;;;;;;;;;;5042692;28;20443;-56
2022/01/14 00:48:05;;;;;;;52.55;20.10;;;;;;;;;;5037627;28;20037;-56
2022/01/14 00:50:33;;;;;;;56.33;19.08;;;;;;;;;;5038955;28;20487;-55
2022/01/14 00:52:59;;;;;;;57.40;19.23;;;;;;;;;;5052968;28;20033;-56
2022/01/14 00:55:39;;;;;;;47.15;18.25;;;;;;;;;;5038733;28;20028;-56
2022/01/14 01:00:49;;;;;;;41.50;16.48;;;;;;;;;;5037345;28;20164;-56
2022/01/14 01:03:14;;;;;;;43.75;18.63;;;;;;;;;;5042023;28;20040;-56
2022/01/14 01:05:40;;;;;;;53.35;17.80;;;;;;;;;;5040433;28;20029;-56
2022/01/14 01:08:10;;;;;;;46.25;16.98;;;;;;;;;;5036635;28;20483;-55
2022/01/14 01:10:46;;;;;;;38.20;16.65;;;;;;;;;;5038510;28;20086;-56
2022/01/14 01:13:19;;;;;;;44.05;16.70;;;;;;;;;;5036299;28;20067;-56
2022/01/14 01:15:45;;;;;;;44.03;16.02;;;;;;;;;;5041922;28;20029;-56
2022/01/14 01:18:11;;;;;;;46.42;16.42;;;;;;;;;;5035982;28;20037;-56
2022/01/14 01:20:37;;;;;;;38.35;15.02;;;;;;;;;;5042024;28;20048;-56
2022/01/14 01:23:04;;;;;;;61.05;15.90;;;;;;;;;;5040033;28;20032;-56
2022/01/14 01:25:37;;;;;;;38.90;16.02;;;;;;;;;;5040342;28;20179;-56
2022/01/14 01:28:03;;;;;;;47.47;16.38;;;;;;;;;;5036336;28;20102;-56
2022/01/14 01:32:56;;;;;;;38.10;16.63;;;;;;;;;;5040616;28;20488;-55
2022/01/14 01:35:21;;;;;;;35.15;15.07;;;;;;;;;;5037934;28;20036;-56
2022/01/14 01:37:47;;;;;;;43.20;16.35;;;;;;;;;;5042378;28;20399;-55
2022/01/14 01:40:14;;;;;;;47.28;17.45;;;;;;;;;;5039265;28;20029;-55
2022/01/14 01:42:42;;;;;;;42.05;15.45;;;;;;;;;;5038566;28;20045;-55
2022/01/14 01:45:11;;;;;;;40.72;15.52;;;;;;;;;;5038276;28;20099;-55
2022/01/14 01:47:38;;;;;;;48.47;16.67;;;;;;;;;;5041587;28;20033;-55
2022/01/14 01:50:14;;;;;;;38.67;16.75;;;;;;;;;;5038486;28;20033;-55
2022/01/14 01:52:40;;;;;;;45.20;16.13;;;;;;;;;;5036794;28;20037;-55
2022/01/14 01:55:06;;;;;;;43.17;16.73;;;;;;;;;;5043531;28;20495;-56
2022/01/14 01:57:32;;;;;;;45.83;17.88;;;;;;;;;;5039779;28;20063;-56
2022/01/14 01:59:58;;;;;;;42.05;17.27;;;;;;;;;;5039289;28;20407;-56
2022/01/14 02:02:24;;;;;;;41.20;17.85;;;;;;;;;;5035355;28;20031;-56
2022/01/14 02:04:50;;;;;;;50.70;18.10;;;;;;;;;;5039026;28;20041;-56
2022/01/14 02:07:15;;;;;;;43.53;18.10;;;;;;;;;;5039831;28;20051;-56
2022/01/14 02:09:41;;;;;;;50.67;18.55;;;;;;;;;;5038213;28;20452;-56
2022/01/14 02:12:10;;;;;;;45.10;17.83;;;;;;;;;;5039047;28;22634;-56
2022/01/14 02:22:50;;;;;;;44.45;18.38;;;;;;;;;;5038209;28;20135;-56
2022/01/14 02:25:23;;;;;;;44.05;17.58;;;;;;;;;;5041463;28;20033;-56
2022/01/14 02:27:48;;;;;;;51.22;20.45;;;;;;;;;;5040018;28;20024;-56
2022/01/14 02:30:14;;;;;;;51.40;18.40;;;;;;;;;;5036861;28;20021;-56
2022/01/14 02:32:40;;;;;;;53.63;16.65;;;;;;;;;;5038534;28;20069;-56
2022/01/14 02:35:08;;;;;;;49.47;18.20;;;;;;;;;;5037523;28;20036;-57
2022/01/14 02:37:34;;;;;;;59.22;18.98;;;;;;;;;;5039485;28;20545;-56
2022/01/14 02:39:59;;;;;;;54.85;18.20;;;;;;;;;;5040960;28;20048;-56
2022/01/14 02:42:25;;;;;;;47.30;17.08;;;;;;;;;;5038870;28;20059;-57
2022/01/14 02:44:53;;;;;;;45.22;17.65;;;;;;;;;;5039381;28;20045;-56
2022/01/14 02:47:18;;;;;;;48.95;19.27;;;;;;;;;;5038868;28;20094;-57
2022/01/14 02:49:44;;;;;;;48.50;19.45;;;;;;;;;;5038502;28;20049;-56
2022/01/14 02:52:09;;;;;;;48.35;17.65;;;;;;;;;;5034135;28;20487;-56
2022/01/14 02:55:02;;;;;;;41.10;17.45;;;;;;;;;;5038905;28;20491;-56
2022/01/14 02:57:28;;;;;;;44.22;17.88;;;;;;;;;;5038566;28;20224;-56
2022/01/14 02:59:57;;;;;;;57.25;19.63;;;;;;;;;;5036950;28;20119;-56
2022/01/14 03:02:25;;;;;;;44.65;18.85;;;;;;;;;;5038575;28;20024;-56
2022/01/14 03:04:50;;;;;;;60.10;19.75;;;;;;;;;;5038258;28;20059;-56
2022/01/14 03:07:16;;;;;;;71.95;19.63;;;;;;;;;;5067634;28;20040;-56
2022/01/14 03:09:41;;;;;;;52.53;19.67;;;;;;;;;;5033848;28;20037;-56
2022/01/14 03:12:07;;;;;;;48.15;17.95;;;;;;;;;;5041180;28;20306;-55
2022/01/14 03:14:32;;;;;;;41.42;18.60;;;;;;;;;;5037837;28;20419;-57
2022/01/14 03:17:00;;;;;;;45.35;18.45;;;;;;;;;;5039798;28;20418;-56
2022/01/14 03:19:27;;;;;;;41.65;17.77;;;;;;;;;;5042930;28;20060;-57
2022/01/14 03:22:04;;;;;;;43.10;17.23;;;;;;;;;;5045251;28;20033;-57
2022/01/14 03:27:02;;;;;;;;;;;;;;;;;;5040799;28;20045;-58
2022/01/14 03:29:28;;;;;;;38.65;16.15;;;;;;;;;;5045261;28;19935;-57
2022/01/14 03:31:54;;;;;;;56.40;17.85;;;;;;;;;;5046401;28;20024;-57
2022/01/14 03:34:19;;;;;;;44.53;17.20;;;;;;;;;;5044712;28;20761;-57
2022/01/14 03:36:45;;;;;;;46.08;18.55;;;;;;;;;;5040585;28;20430;-57
2022/01/14 03:39:11;;;;;;;49.13;18.90;;;;;;;;;;5038795;28;20033;-58
2022/01/14 03:41:36;;;;;;;47.72;17.77;;;;;;;;;;5043978;28;20131;-57
2022/01/14 03:44:02;;;;;;;54.67;19.35;;;;;;;;;;5044779;28;20123;-56
2022/01/14 03:46:28;;;;;;;49.20;18.30;;;;;;;;;;5043279;28;20531;-56
2022/01/14 03:48:53;;;;;;;50.00;18.58;;;;;;;;;;5041537;28;20025;-57
2022/01/14 03:51:20;;;;;;;60.83;17.88;;;;;;;;;;5041403;28;20039;-57
2022/01/14 03:53:47;;;;;;;41.53;18.27;;;;;;;;;;5049461;28;20039;-56
2022/01/14 03:56:13;;;;;;;46.50;17.67;;;;;;;;;;5043085;28;20037;-56
2022/01/14 03:58:40;;;;;;;45.15;17.42;;;;;;;;;;5041417;28;20025;-57
2022/01/14 04:01:07;;;;;;;44.00;18.63;;;;;;;;;;5042001;28;20393;-57
2022/01/14 04:03:33;;;;;;;57.47;18.83;;;;;;;;;;5042229;28;20037;-56
2022/01/14 04:05:59;;;;;;;39.25;18.55;;;;;;;;;;5044109;28;20459;-56
2022/01/14 04:08:24;;;;;;;47.00;18.67;;;;;;;;;;5039882;28;20060;-56
2022/01/14 04:10:53;;;;;;;49.60;19.77;;;;;;;;;;5040118;28;20029;-56
2022/01/14 04:13:23;;;;;;;52.17;19.13;;;;;;;;;;5042144;28;20064;-56
2022/01/14 04:15:49;;;;;;;45.58;18.48;;;;;;;;;;5039918;28;20041;-56
2022/01/14 04:18:19;;;;;;;55.55;18.13;;;;;;;;;;5038269;28;20039;-56
2022/01/14 04:20:47;;;;;;;46.65;18.70;;;;;;;;;;5046975;28;20039;-56
2022/01/14 04:23:15;;;;;;;57.33;20.73;;;;;;;;;;5037654;28;20037;-57
2022/01/14 04:25:41;;;;;;;59.22;19.92;;;;;;;;;;5040257;28;20043;-56
2022/01/14 04:28:08;;;;;;;48.90;19.15;;;;;;;;;;5032922;28;20025;-56
2022/01/14 04:30:35;;;;;;;48.50;18.65;;;;;;;;;;5043141;28;20039;-57
2022/01/14 04:33:02;;;;;;;41.70;17.10;;;;;;;;;;5043137;28;20032;-57
2022/01/14 04:35:28;;;;;;;50.90;18.30;;;;;;;;;;5038871;28;20025;-57
2022/01/14 04:37:54;;;;;;;42.35;18.70;;;;;;;;;;5042356;28;20060;-57
2022/01/14 04:40:19;;;;;;;46.45;17.88;;;;;;;;;;5040144;28;20098;-56
2022/01/14 04:42:46;;;;;;;36.17;16.88;;;;;;;;;;5040051;28;20025;-56
2022/01/14 04:45:29;;;;;;;50.08;16.65;;;;;;;;;;5042924;28;20072;-56
2022/01/14 04:47:55;;;;;;;42.08;15.55;;;;;;;;;;5039790;28;20120;-55
2022/01/14 04:50:23;;;;;;;36.60;15.88;;;;;;;;;;5044474;28;20326;-56
2022/01/14 04:52:49;;;;;;;33.22;15.02;;;;;;;;;;5041346;28;20480;-56
2022/01/14 04:55:18;;;;;;;37.70;15.98;;;;;;;;;;5043313;28;20029;-56
2022/01/14 04:57:45;;;;;;;38.80;14.05;;;;;;;;;;5037649;28;20404;-56
2022/01/14 05:00:17;;;;;;;30.77;14.18;;;;;;;;;;5040607;28;20537;-55
2022/01/14 05:02:42;;;;;;;27.75;14.68;;;;;;;;;;5038955;28;20116;-56
2022/01/14 05:05:09;;;;;;;41.53;16.30;;;;;;;;;;5041210;28;20136;-56
2022/01/14 05:07:35;;;;;;;27.77;14.07;;;;;;;;;;5041005;28;20128;-56
2022/01/14 05:12:38;;;;;;;35.38;14.73;;;;;;;;;;5036114;28;20087;-55
2022/01/14 05:15:05;;;;;;;32.13;15.07;;;;;;;;;;5042649;28;20025;-55
2022/01/14 05:17:31;;;;;;;35.22;15.68;;;;;;;;;;5037521;28;20048;-56
2022/01/14 05:19:58;;;;;;;33.17;15.48;;;;;;;;;;5043225;28;20045;-56
2022/01/14 05:22:27;;;;;;;40.50;16.42;;;;;;;;;;5038279;28;20126;-57
2022/01/14 05:24:53;;;;;;;37.83;15.15;;;;;;;;;;5041147;28;20029;-57
2022/01/14 05:27:20;;;;;;;42.80;15.20;;;;;;;;;;5040021;28;20040;-56
2022/01/14 05:29:45;;;;;;;42.78;16.80;;;;;;;;;;5039665;28;20029;-57
2022/01/14 05:32:15;;;;;;;37.83;16.15;;;;;;;;;;5039395;28;20066;-56
2022/01/14 05:34:43;;;;;;;40.10;15.60;;;;;;;;;;5036595;28;20040;-56
2022/01/14 05:37:09;;;;;;;40.72;14.82;;;;;;;;;;5037407;28;20021;-56
2022/01/14 05:39:35;;;;;;;37.90;15.55;;;;;;;;;;5043062;28;20041;-56
2022/01/14 05:42:02;;;;;;;35.58;14.68;;;;;;;;;;5038544;28;20033;-57
2022/01/14 05:44:29;;;;;;;38.45;15.50;;;;;;;;;;5038983;28;20049;-57
2022/01/14 05:46:56;;;;;;;43.17;15.52;;;;;;;;;;5041558;28;20044;-56
2022/01/14 05:49:22;;;;;;;33.00;13.98;;;;;;;;;;5039047;28;20036;-57
2022/01/14 05:51:48;;;;;;;29.35;13.48;;;;;;;;;;5041760;28;20051;-56
2022/01/14 05:54:15;;;;;;;30.98;14.48;;;;;;;;;;5040136;28;20044;-56
2022/01/14 05:56:41;;;;;;;35.05;13.43;;;;;;;;;;5038581;28;20029;-56
2022/01/14 05:59:07;;;;;;;28.25;12.88;;;;;;;;;;5038526;28;20136;-56
2022/01/14 06:01:32;;;;;;;35.40;14.70;;;;;;;;;;5040552;28;20029;-57
2022/01/14 06:03:59;;;;;;;27.25;13.07;;;;;;;;;;5036687;28;20423;-55
2022/01/14 06:06:24;;;;;;;33.10;13.63;;;;;;;;;;5037889;28;20350;-56
2022/01/14 06:08:50;;;;;;;32.97;14.20;;;;;;;;;;5036984;28;20051;-56
2022/01/14 06:11:16;;;;;;;36.83;13.27;;;;;;;;;;5038280;28;20090;-56
2022/01/14 06:13:42;;;;;;;37.28;13.70;;;;;;;;;;5037869;28;20066;-56
2022/01/14 06:16:08;;;;;;;36.63;13.55;;;;;;;;;;5037515;28;20033;-56
2022/01/14 06:18:34;;;;;;;30.92;12.60;;;;;;;;;;5042112;28;20499;-56
2022/01/14 06:20:59;;;;;;;43.22;14.52;;;;;;;;;;5035596;28;20138;-56
2022/01/14 06:23:25;;;;;;;40.80;13.95;;;;;;;;;;5037700;28;20044;-57
2022/01/14 06:25:50;;;;;;;45.67;13.75;;;;;;;;;;5037912;28;20029;-57
2022/01/14 06:28:16;;;;;;;32.17;12.85;;;;;;;;;;5037494;28;20430;-56
2022/01/14 06:30:41;;;;;;;35.20;13.65;;;;;;;;;;5040105;28;20090;-56
2022/01/14 06:33:07;;;;;;;33.15;14.13;;;;;;;;;;5034966;28;20087;-56
2022/01/14 06:35:33;;;;;;;30.40;13.07;;;;;;;;;;5041438;28;20392;-57
2022/01/14 06:38:00;;;;;;;32.63;13.40;;;;;;;;;;5040884;28;20032;-57
2022/01/14 06:40:26;;;;;;;35.53;13.82;;;;;;;;;;5037585;28;20064;-56
2022/01/14 06:42:51;;;;;;;39.33;14.75;;;;;;;;;;5033853;28;20036;-54
2022/01/14 06:45:17;;;;;;;31.90;13.15;;;;;;;;;;5038751;28;20060;-54
2022/01/14 06:47:43;;;;;;;32.58;13.38;;;;;;;;;;5040356;28;20056;-55
2022/01/14 06:50:09;;;;;;;49.80;14.35;;;;;;;;;;5040593;28;20075;-55
2022/01/14 06:52:34;;;;;;;39.75;13.63;;;;;;;;;;5038362;28;20152;-57
2022/01/14 06:55:00;;;;;;;32.08;13.15;;;;;;;;;;5039696;28;20126;-56
2022/01/14 06:57:25;;;;;;;40.50;13.77;;;;;;;;;;5039442;28;20037;-56
2022/01/14 06:59:51;;;;;;;30.73;11.30;;;;;;;;;;5042016;28;20124;-56
2022/01/14 07:02:17;;;;;;;34.97;12.40;;;;;;;;;;5037631;28;20511;-56
2022/01/14 07:04:42;;;;;;;30.95;13.82;;;;;;;;;;5041290;28;20468;-56
2022/01/14 07:07:08;;;;;;;36.83;13.80;;;;;;;;;;5044549;28;20139;-56
2022/01/14 07:09:55;;;;;;;35.22;12.35;;;;;;;;;;5043134;28;20029;-57
2022/01/14 07:12:19;;;;;;;36.13;14.27;;;;;;;;;;5038492;28;20078;-56
2022/01/14 07:14:44;;;;;;;31.73;12.38;;;;;;;;;;5044702;28;20033;-57
2022/01/14 07:17:10;;;;;;;39.17;12.68;;;;;;;;;;5041403;28;20041;-55
2022/01/14 07:19:35;;;;;;;31.25;14.70;;;;;;;;;;5042693;28;20380;-55
2022/01/14 07:22:01;;;;;;;47.05;13.25;;;;;;;;;;5042321;28;20025;-55
2022/01/14 07:24:26;;;;;;;37.95;14.45;;;;;;;;;;5069350;28;20480;-56
2022/01/14 07:26:52;;;;;;;32.42;13.52;;;;;;;;;;5041819;28;20302;-57
2022/01/14 07:29:17;;;;;;;33.78;13.38;;;;;;;;;;5040197;28;20411;-55
2022/01/14 07:31:43;;;;;;;35.88;14.38;;;;;;;;;;5043804;28;20032;-56
2022/01/14 07:34:08;;;;;;;40.40;13.70;;;;;;;;;;5041220;28;20043;-56
2022/01/14 07:36:34;;;;;;;40.63;14.77;;;;;;;;;;5039410;28;20732;-56
2022/01/14 07:39:00;;;;;;;34.28;13.82;;;;;;;;;;5040968;28;20099;-56
2022/01/14 07:41:25;;;;;;;32.38;14.68;;;;;;;;;;5043148;28;20117;-56
2022/01/14 07:43:51;;;;;;;44.03;15.35;;;;;;;;;;5037747;28;20561;-56
2022/01/14 07:46:16;;;;;;;35.80;14.10;;;;;;;;;;5042448;28;20044;-56
2022/01/14 07:48:42;;;;;;;47.15;14.90;;;;;;;;;;5042195;28;20294;-56
2022/01/14 07:51:09;;;;;;;37.03;14.90;;;;;;;;;;5040306;28;20029;-56
2022/01/14 07:53:36;;;;;;;35.97;15.07;;;;;;;;;;5036400;28;20042;-56
2022/01/14 07:56:05;;;;;;;35.92;16.13;;;;;;;;;;5031880;28;20119;-55
2022/01/14 07:58:30;;;;;;;41.30;15.63;;;;;;;;;;5041897;28;20325;-55
2022/01/14 08:00:56;;;;;;;38.20;15.23;;;;;;;;;;5039732;28;20428;-55
2022/01/14 08:03:21;;;;;;;39.50;15.10;;;;;;;;;;5036735;28;20040;-53
2022/01/14 08:05:49;;;;;;;45.75;15.77;;;;;;;;;;5076233;28;20069;-55
2022/01/14 08:08:14;;;;;;;36.45;16.52;;;;;;;;;;5042595;28;20116;-55
2022/01/14 08:10:40;;;;;;;33.67;14.05;;;;;;;;;;5042775;28;20557;-53
2022/01/14 08:13:05;;;;;;;36.05;15.18;;;;;;;;;;5041747;28;20040;-55
2022/01/14 08:15:31;;;;;;;33.72;14.85;;;;;;;;;;5044935;28;20113;-55
2022/01/14 08:17:59;;;;;;;48.92;15.10;;;;;;;;;;5047548;28;20029;-55
2022/01/14 08:20:25;;;;;;;40.63;15.77;;;;;;;;;;5044414;28;20041;-56
2022/01/14 08:22:50;;;;;;;36.83;15.70;;;;;;;;;;5042171;28;20036;-56
2022/01/14 08:25:16;;;;;;;32.92;15.85;;;;;;;;;;5044366;28;20036;-55
2022/01/14 08:27:41;;;;;;;44.67;16.13;;;;;;;;;;5044603;28;20512;-55
2022/01/14 08:30:07;;;;;;;35.90;16.38;;;;;;;;;;5040218;28;20037;-54
2022/01/14 08:32:33;;;;;;;29.90;13.93;;;;;;;;;;5051338;28;20033;-55
2022/01/14 08:34:59;;;;;;;41.03;15.57;;;;;;;;;;5043815;28;20036;-56
2022/01/14 08:37:24;;;;;;;43.30;16.33;;;;;;;;;;5046970;28;20037;-56
2022/01/14 08:39:50;;;;;;;44.28;17.25;;;;;;;;;;5043530;28;20218;-55
2022/01/14 08:42:16;;;;;;;40.70;16.45;;;;;;;;;;5045452;28;20436;-55
2022/01/14 08:44:43;;;;;;;43.47;17.52;;;;;;;;;;5042295;28;20072;-56
2022/01/14 08:47:09;;;;;;;46.53;16.67;;;;;;;;;;5043596;28;20025;-56
2022/01/14 08:49:43;;;;;;;39.40;16.63;;;;;;;;;;5035907;28;20028;-55
2022/01/14 08:52:11;;;;;;;47.17;17.17;;;;;;;;;;5035431;28;20056;-56
2022/01/14 08:54:37;;;;;;;56.50;17.48;;;;;;;;;;5038235;28;20028;-55
2022/01/14 08:57:03;;;;;;;41.38;17.35;;;;;;;;;;5045335;28;20442;-55
2022/01/14 08:59:30;;;;;;;51.33;17.83;;;;;;;;;;5045378;28;20033;-54
2022/01/14 09:01:55;;;;;;;63.30;18.52;;;;;;;;;;5042280;28;20074;-55
2022/01/14 09:04:21;;;;;;;51.75;17.42;;;;;;;;;;5036537;28;20764;-56
2022/01/14 09:06:46;;;;;;;41.03;17.45;;;;;;;;;;5034843;28;20025;-56
2022/01/14 09:09:12;;;;;;;42.42;17.50;;;;;;;;;;5037281;28;20482;-55
2022/01/14 09:11:37;;;;;;;50.13;17.33;;;;;;;;;;5039817;28;20103;-55
2022/01/14 09:14:03;;;;;;;40.00;16.35;;;;;;;;;;5040145;28;20025;-56
2022/01/14 09:16:29;;;;;;;38.50;16.58;;;;;;;;;;5043265;28;20175;-56
2022/01/14 09:18:54;;;;;;;49.53;17.05;;;;;;;;;;5035858;28;20051;-56
2022/01/14 09:21:20;;;;;;;41.55;16.15;;;;;;;;;;5040118;28;20940;-56
2022/01/14 09:23:51;;;;;;;44.58;16.90;;;;;;;;;;5043624;28;20444;-56
2022/01/14 09:26:18;;;;;;;44.20;17.40;;;;;;;;;;5045398;28;20029;-56
2022/01/14 09:28:44;;;;;;;43.47;17.52;;;;;;;;;;5065977;28;20526;-56
2022/01/14 09:31:09;;;;;;;44.83;16.65;;;;;;;;;;5041766;28;20057;-56
2022/01/14 09:33:35;;;;;;;43.33;18.58;;;;;;;;;;5043486;28;20035;-55
2022/01/14 09:36:01;;;;;;;46.90;17.15;;;;;;;;;;5045250;28;20029;-55
2022/01/14 09:38:26;;;;;;;44.28;17.90;;;;;;;;;;5041265;28;20091;-55
2022/01/14 09:40:54;;;;;;;42.97;16.67;;;;;;;;;;5039010;28;20484;-55
2022/01/14 09:43:19;;;;;;;37.25;16.40;;;;;;;;;;5040339;28;20055;-56
2022/01/14 09:45:45;;;;;;;39.90;15.95;;;;;;;;;;5041379;28;20037;-55
2022/01/14 09:48:15;;;;;;;48.83;19.02;;;;;;;;;;5042462;28;20051;-56
2022/01/14 09:50:42;;;;;;;55.22;19.25;;;;;;;;;;5032835;28;20113;-56
2022/01/14 09:53:14;;;;;;;46.47;17.98;;;;;;;;;;5042926;28;20404;-56
2022/01/14 09:55:40;;;;;;;;;;;;;;;;;;5036584;28;20098;-55
2022/01/14 09:58:05;;;;;;;50.38;17.75;;;;;;;;;;5039999;28;19921;-55
2022/01/14 10:00:32;;;;;;;54.58;19.20;;;;;;;;;;5039527;28;20025;-56
2022/01/14 10:02:58;;;;;;;48.30;19.17;;;;;;;;;;5038030;28;20033;-55
2022/01/14 10:05:38;;;;;;;57.53;21.05;;;;;;;;;;5036763;28;20587;-56
2022/01/14 10:08:13;;;;;;;48.50;17.92;;;;;;;;;;5038560;28;20044;-56
2022/01/14 10:10:43;;;;;;;41.35;13.68;;;;;;;;;;5036464;28;20033;-56
2022/01/14 10:13:18;;;;;;;50.30;16.83;;;;;;;;;;5037349;28;20036;-54
2022/01/14 10:15:49;;;;;;;45.47;15.70;;;;;;;;;;5041044;28;20052;-55
2022/01/14 10:18:16;;;;;;;54.72;14.80;;;;;;;;;;5031414;28;20571;-55
2022/01/14 10:20:42;;;;;;;62.28;17.38;;;;;;;;;;5035161;28;20036;-55
2022/01/14 10:23:08;;;;;;;43.78;16.42;;;;;;;;;;5038741;28;20401;-55
2022/01/14 10:25:33;;;;;;;30.55;11.95;;;;;;;;;;5032164;28;21192;-56
2022/01/14 10:27:59;;;;;;;27.20;12.85;;;;;;;;;;5034482;28;20041;-56
2022/01/14 10:30:32;;;;;;;53.80;14.57;;;;;;;;;;5034415;28;20044;-56
2022/01/14 10:33:07;;;;;;;34.50;13.82;;;;;;;;;;5040199;28;20036;-55
2022/01/14 10:35:42;;;;;;;30.63;13.27;;;;;;;;;;5041559;28;20029;-54
2022/01/14 10:38:10;;;;;;;44.80;14.98;;;;;;;;;;5035433;28;20033;-56
2022/01/14 10:40:41;;;;;;;52.78;14.77;;;;;;;;;;5037732;28;20034;-56
2022/01/14 10:43:09;;;;;;;36.45;15.25;;;;;;;;;;5035083;28;20471;-55
2022/01/14 10:45:35;;;;;;;40.03;15.45;;;;;;;;;;5038044;28;20144;-56
2022/01/14 10:48:03;;;;;;;42.75;16.42;;;;;;;;;;5032793;28;20033;-56
2022/01/14 10:50:40;;;;;;;43.53;16.25;;;;;;;;;;5041834;28;20024;-55
2022/01/14 10:53:24;;;;;;;50.63;17.90;;;;;;;;;;5033965;28;20033;-56
2022/01/14 10:55:51;;;;;;;46.70;17.40;;;;;;;;;;5033536;28;20098;-55
2022/01/14 10:58:23;;;;;;;48.42;17.90;;;;;;;;;;5038059;28;20102;-55
2022/01/14 11:00:55;;;;;;;48.10;17.95;;;;;;;;;;5035894;28;20035;-56
2022/01/14 11:03:36;;;;;;;72.63;19.65;;;;;;;;;;5039110;28;20119;-55
2022/01/14 11:06:23;;;;;;;57.03;22.27;;;;;;;;;;5040581;28;20029;-55
2022/01/14 11:09:00;;;;;;;61.83;19.08;;;;;;;;;;5036603;28;20028;-55
2022/01/14 11:11:30;;;;;;;44.53;19.05;;;;;;;;;;5040679;28;20017;-56
2022/01/14 11:13:56;;;;;;;65.78;19.23;;;;;;;;;;5036209;28;20048;-56
2022/01/14 11:16:22;;;;;;;76.03;20.40;;;;;;;;;;5033846;28;20119;-56
2022/01/14 11:18:49;;;;;;;64.88;21.05;;;;;;;;;;5035187;28;20044;-55
2022/01/14 11:24:00;;;;;;;71.05;23.05;;;;;;;;;;5035475;28;20063;-56
2022/01/14 11:26:32;;;;;;;62.45;20.42;;;;;;;;;;5037933;28;20575;-55
2022/01/14 11:29:05;;;;;;;56.38;17.98;;;;;;;;;;5040346;28;20040;-56
2022/01/14 11:31:35;;;;;;;49.67;17.50;;;;;;;;;;5038481;28;20075;-56
2022/01/14 11:34:02;;;;;;;44.72;18.55;;;;;;;;;;5039424;28;20052;-56
2022/01/14 11:36:48;;;;;;;46.60;18.92;;;;;;;;;;5043096;28;20240;-55
2022/01/14 11:39:36;;;;;;;48.30;16.30;;;;;;;;;;5032098;28;20029;-56
2022/01/14 11:42:04;;;;;;;40.80;16.85;;;;;;;;;;5040918;28;20274;-56
2022/01/14 11:44:47;;;;;;;41.78;18.08;;;;;;;;;;5044081;28;20124;-56
2022/01/14 11:47:22;;;;;;;37.50;17.55;;;;;;;;;;5044584;28;20041;-56
2022/01/14 11:49:47;;;;;;;53.97;19.63;;;;;;;;;;5043407;28;20977;-55
2022/01/14 11:52:13;;;;;;;47.55;17.85;;;;;;;;;;5038013;28;20041;-55
2022/01/14 11:54:44;;;;;;;49.10;16.70;;;;;;;;;;5038310;28;20468;-57
2022/01/14 11:57:12;;;;;;;38.70;16.33;;;;;;;;;;5043940;28;20404;-55
2022/01/14 11:59:39;;;;;;;35.38;14.35;;;;;;;;;;5041859;28;20645;-55
2022/01/14 12:02:32;;;;;;;42.75;14.65;;;;;;;;;;5040735;28;20136;-55
2022/01/14 12:05:06;;;;;;;46.90;14.95;;;;;;;;;;5033543;28;20103;-55
2022/01/14 12:07:52;;;;;;;37.97;13.18;;;;;;;;;;5042047;28;20029;-56
2022/01/14 12:10:31;;;;;;;39.33;13.90;;;;;;;;;;5035343;28;20033;-55
2022/01/14 12:13:28;;;;;;;44.92;14.60;;;;;;;;;;5041712;28;20116;-56
2022/01/14 12:16:03;;;;;;;38.40;14.80;;;;;;;;;;5043148;28;20029;-56
2022/01/14 12:18:56;;;;;;;34.30;13.77;;;;;;;;;;5039064;28;20068;-56
2022/01/14 12:21:37;;;;;;;31.52;12.57;;;;;;;;;;5040649;28;20043;-56
2022/01/14 12:24:22;;;;;;;40.63;13.48;;;;;;;;;;5039715;28;20128;-55
2022/01/14 12:26:54;;;;;;;31.35;13.20;;;;;;;;;;5037014;28;20060;-56
2022/01/14 12:29:30;;;;;;;39.42;12.52;;;;;;;;;;5041997;28;20116;-56
2022/01/14 12:32:16;;;;;;;36.42;13.07;;;;;;;;;;5044565;28;20021;-56
2022/01/14 12:34:44;;;;;;;60.53;14.25;;;;;;;;;;5044056;28;20063;-56
2022/01/14 12:37:21;;;;;;;40.50;14.70;;;;;;;;;;5045817;28;20028;-56
2022/01/14 12:39:48;;;;;;;48.10;17.00;;;;;;;;;;5044491;28;20204;-55
2022/01/14 12:42:14;;;;;;;52.53;15.48;;;;;;;;;;5042353;28;20237;-55
2022/01/14 12:44:40;;;;;;;37.45;14.98;;;;;;;;;;5040820;28;20109;-55
2022/01/14 12:47:09;;;;;;;47.97;16.13;;;;;;;;;;5039518;28;20424;-56
2022/01/14 12:49:40;;;;;;;46.17;14.77;;;;;;;;;;5037452;28;20196;-55
2022/01/14 12:52:12;;;;;;;37.13;14.32;;;;;;;;;;5045012;28;20408;-55
2022/01/14 12:54:42;;;;;;;44.13;15.30;;;;;;;;;;5042534;28;20043;-55
2022/01/14 12:57:08;;;;;;;45.15;17.35;;;;;;;;;;5043264;28;20343;-56
2022/01/14 12:59:44;;;;;;;43.92;15.85;;;;;;;;;;5032279;28;20475;-55
2022/01/14 13:02:17;;;;;;;41.03;15.27;;;;;;;;;;5040983;28;20527;-55
2022/01/14 13:04:43;;;;;;;36.55;15.85;;;;;;;;;;5041467;28;20028;-55
2022/01/14 13:07:11;;;;;;;41.10;15.55;;;;;;;;;;5041921;28;20033;-56
2022/01/14 13:09:39;;;;;;;35.50;16.25;;;;;;;;;;5041773;28;20443;-55
2022/01/14 13:12:13;;;;;;;41.92;16.58;;;;;;;;;;5039433;28;20053;-56
2022/01/14 13:14:45;;;;;;;35.35;15.23;;;;;;;;;;5042282;28;20075;-56
2022/01/14 13:17:17;;;;;;;37.70;15.52;;;;;;;;;;5043040;28;20500;-56
2022/01/14 13:19:44;;;;;;;38.10;14.63;;;;;;;;;;5042981;28;20506;-56
2022/01/14 13:22:13;;;;;;;50.47;17.70;;;;;;;;;;5043394;28;20048;-55
2022/01/14 13:24:42;;;;;;;41.38;15.07;;;;;;;;;;5041889;28;20021;-56
2022/01/14 13:27:20;;;;;;;40.60;15.57;;;;;;;;;;5041386;28;20495;-55
2022/01/14 13:29:49;;;;;;;32.72;14.80;;;;;;;;;;5041030;28;20536;-55
2022/01/14 13:32:26;;;;;;;44.97;17.60;;;;;;;;;;5041745;28;20035;-55
2022/01/14 13:34:55;;;;;;;61.83;25.25;;;;;;;;;;5041939;28;22437;-55
2022/01/14 13:37:24;;;;;;;59.25;22.10;;;;;;;;;;5046095;28;20391;-54
2022/01/14 13:40:04;;;;;;;36.78;15.10;;;;;;;;;;5041889;28;20111;-54
2022/01/14 13:42:30;;;;;;;35.33;14.60;;;;;;;;;;5044340;28;20029;-56
2022/01/14 13:45:08;;;;;;;34.45;13.07;;;;;;;;;;5037188;28;20139;-55
2022/01/14 13:47:35;;;;;;;31.90;12.55;;;;;;;;;;5039044;28;20570;-55
2022/01/14 13:50:31;;;;;;;39.80;14.18;;;;;;;;;;5042617;28;20500;-55
2022/01/14 13:53:00;;;;;;;34.22;13.60;;;;;;;;;;5039810;28;20512;-54
2022/01/14 13:55:36;;;;;;;39.40;13.63;;;;;;;;;;5042535;28;20452;-56
2022/01/14 13:58:13;;;;;;;28.58;12.23;;;;;;;;;;5040234;28;20510;-54
2022/01/14 14:00:41;;;;;;;43.72;14.20;;;;;;;;;;5039382;28;20094;-55
2022/01/14 14:03:18;;;;;;;30.58;13.25;;;;;;;;;;5037168;28;20587;-54
2022/01/14 14:05:48;;;;;;;36.03;12.68;;;;;;;;;;5036633;28;20060;-55
2022/01/14 14:08:24;;;;;;;40.75;14.55;;;;;;;;;;5037220;28;20110;-55
2022/01/14 14:17:04;;;;;;;43.53;13.63;;;;;;;;;;5038344;28;20035;-56
2022/01/14 14:19:48;;;;;;;35.92;11.98;;;;;;;;;;5037524;28;20024;-56
2022/01/14 14:22:13;;;;;;;28.17;11.43;;;;;;;;;;5036343;28;20029;-57
2022/01/14 14:24:40;;;;;;;36.85;12.05;;;;;;;;;;5040508;28;20028;-56
2022/01/14 14:27:15;;;;;;;34.38;12.20;;;;;;;;;;5040976;28;20014;-55
2022/01/14 14:29:46;;;;;;;37.83;13.45;;;;;;;;;;5038773;28;20095;-55
2022/01/14 14:32:26;;;;;;;31.60;12.20;;;;;;;;;;5034160;28;20040;-55
2022/01/14 14:34:57;;;;;;;27.45;10.82;;;;;;;;;;5040831;28;20040;-54
2022/01/14 14:37:23;;;;;;;33.03;12.25;;;;;;;;;;5040006;28;20545;-55
2022/01/14 14:39:50;;;;;;;53.03;16.35;;;;;;;;;;5039144;28;20210;-55
2022/01/14 14:42:15;;;;;;;40.55;13.50;;;;;;;;;;5042826;28;20150;-58
2022/01/14 14:44:41;;;;;;;40.67;13.38;;;;;;;;;;5041084;28;20049;-55
2022/01/14 14:47:07;;;;;;;35.92;12.73;;;;;;;;;;5037495;28;20392;-54
2022/01/14 14:49:34;;;;;;;32.60;11.55;;;;;;;;;;5039393;28;20120;-55
2022/01/14 14:52:00;;;;;;;29.65;11.48;;;;;;;;;;5040834;28;20032;-55
2022/01/14 14:54:26;;;;;;;36.63;11.20;;;;;;;;;;5039761;28;20036;-56
2022/01/14 14:56:51;;;;;;;29.45;11.30;;;;;;;;;;5037969;28;20025;-54
2022/01/14 14:59:17;;;;;;;26.58;10.10;;;;;;;;;;5038996;28;20095;-55
2022/01/14 15:01:46;;;;;;;28.83;10.35;;;;;;;;;;5035050;28;20093;-55